Holualoa, HI (96725)

4:16 AM HST on September 17, 2014 (GMT -1000)
Kona Palisades | Change Station
CLOSE
Current Station
Personal Weather Station
Location: Kailua-Kona, HI
Elevation: 1007 ft
Nearby Weather Stations

Elev 1007 ft 19.72 °N, 155.99 °W | Updated 14 minutes ago

Clear
Clear
72.0 °F
Feels Like 71 °F
N
2.0
Wind Variable Wind from ESE
Gusts 5.0 mph

Today
High -- | Low -- °F
--% Chance of Precip.
Yesterday
High -- | Low -- °F
Precip. -- in
6:11 AM 6:24 PM
Waning Crescent, 35% visible
Pressure 29.89 in
Visibility 10.0 miles
Clouds Clear
Heat Index 71 °F
Dew Point 67 °F
Humidity 83%
Rainfall 0.00 in
Snow Depth Not available.
UV 0 out of 12
Pollen Not available.
Air Quality Not available.
Flu Activity Not available.
METAR PHKO 171353Z AUTO 00000KT 10SM CLR 26/18 A2989 RMK AO2 SLP122 T02610183 TSNO

More Conditions Fewer Conditions

Pressure 29.89 in
Visibility 10.0 miles
Clouds Clear
Heat Index 71 °F
Dew Point 67 °F
Humidity 83%
Rainfall 0.00 in
Snow Depth Not available.
UV 0 out of 12
Pollen Not available.
Air Quality Not available.
Flu Activity Not available.
METAR PHKO 171353Z AUTO 00000KT 10SM CLR 26/18 A2989 RMK AO2 SLP122 T02610183 TSNO

More Conditions Fewer Conditions

10-Day Weather Forecast

Almanac

Astronomy

Sep. 17, 2014 Rise Set
Actual Time 6:11 AM HST 6:24 PM HST
Civil Twilight 5:49 AM HST 6:46 PM HST
Nautical Twilight 5:24 AM HST 7:11 PM HST
Astronomical Twilight 4:58 AM HST 7:37 PM HST
Moon 12:54 AM HST 2:10 PM HST
Length of Visible Light 12h 56m
Length of Day
12h 12m
Tomorrow will be 1m 7s shorter.
Waning Crescent, 35% of the Moon is Illuminated
Today
Waning Crescent
Sep 24
New
Oct 1
First Quarter
Oct 8
Full
Oct 15
Last Quarter

Today's Extremes

State Highs State Lows

Community

WunderPhotos

Upload Photos

1,754,049 photos uploaded!

WunderBlogs® & News

By Dr. Jeff Masters
Director of Meteorology, Weather Underground
By Kari Strenfel
Meteorologist, Weather Underground
By Christopher C. Burt
Weather Historian, Weather Underground
September 17, 2014
September 17, 2014
September 17, 2014

Nearby

Snow Depth

Station Depth Elevation
No new snow has been reported.

Earthquake Activity

City Distance Mag. Time & Date
No recent earthquake activity has been reported nearby.
Minimum magnitude displayed is 2.5.

Coastal Water Temperatures

Place Temperature
No Stations Reporting

Nearby Weather Stations